Time;durP1;ratioP1;P1;durP2;ratioP2;P2;SDS_P1;SDS_P2;PMS_P1;PMS_P2;Temp;Humidity;BMP_temperature;BMP_pressure;BME280_temperature;BME280_humidity;BME280_pressure;Samples;Min_cycle;Max_cycle;Signal;HPM_P1;HPM_P2
2022/07/20 00:00:24;;;;;;;9.63;3.22;;;;;;;21.46;100.00;166184.94;5028861;28;20049;-66
2022/07/20 00:02:49;;;;;;;7.13;3.03;;;;;;;21.44;100.00;166179.50;5031600;28;20492;-67
2022/07/20 00:05:15;;;;;;;6.30;2.78;;;;;;;21.41;100.00;166171.31;5011550;28;20029;-67
2022/07/20 00:07:40;;;;;;;4.00;2.72;;;;;;;21.39;100.00;166165.94;5022555;28;20029;-67
2022/07/20 00:12:50;;;;;;;2.95;2.67;;;;;;;21.36;100.00;166157.75;5031835;28;20044;-66
2022/07/20 00:15:15;;;;;;;6.18;2.70;;;;;;;21.35;100.00;166155.03;5011475;28;20038;-65
2022/07/20 00:17:40;;;;;;;6.93;3.13;;;;;;;21.35;100.00;166156.41;5012554;28;20045;-64
2022/07/20 00:20:06;;;;;;;7.15;2.88;;;;;;;21.34;100.00;166152.31;5011048;28;20034;-65
2022/07/20 00:22:31;;;;;;;8.50;3.50;;;;;;;21.27;100.00;166133.31;5012619;28;20032;-64
2022/07/20 00:24:57;;;;;;;5.55;3.47;;;;;;;21.23;100.00;166125.19;5012249;28;20045;-64
2022/07/20 00:27:22;;;;;;;10.50;2.85;;;;;;;21.16;100.00;166106.16;5012237;28;20034;-64
2022/07/20 00:29:47;;;;;;;16.77;3.78;;;;;;;21.12;100.00;166093.94;5011032;28;20386;-64
2022/07/20 00:32:13;;;;;;;5.53;3.38;;;;;;;21.07;100.00;166081.72;5011928;28;20038;-65
2022/07/20 00:34:38;;;;;;;15.45;3.65;;;;;;;21.03;100.00;166070.88;5025716;28;20045;-63
2022/07/20 00:37:04;;;;;;;29.42;5.65;;;;;;;21.00;100.00;166064.03;5022327;28;20036;-63
2022/07/20 00:39:29;;;;;;;4.80;3.13;;;;;;;20.89;100.00;166035.53;5014732;28;20076;-64
2022/07/20 00:41:54;;;;;;;5.93;3.33;;;;;;;20.89;100.00;166035.53;5032037;28;20026;-64
2022/07/20 00:44:20;;;;;;;13.93;4.45;;;;;;;20.83;100.00;166019.25;5017761;28;20052;-64
2022/07/20 00:46:46;;;;;;;8.10;3.95;;;;;;;20.77;100.00;166004.31;5012292;28;20026;-64
2022/07/20 00:49:13;;;;;;;5.95;3.25;;;;;;;20.72;100.00;165989.34;5011978;28;20053;-64
2022/07/20 00:51:41;;;;;;;3.70;3.08;;;;;;;20.66;100.00;165973.06;5014340;28;20037;-64
2022/07/20 00:54:08;;;;;;;8.27;3.17;;;;;;;20.61;100.00;165962.19;5017521;28;20101;-64
2022/07/20 00:56:35;;;;;;;5.63;3.15;;;;;;;20.56;100.00;165948.63;5010422;28;20045;-64
2022/07/20 00:59:05;;;;;;;4.07;3.30;;;;;;;20.50;100.00;165932.34;5012080;28;20030;-64
2022/07/20 01:01:31;;;;;;;3.83;3.15;;;;;;;20.46;100.00;165921.44;5026718;28;20158;-63
2022/07/20 01:03:57;;;;;;;6.38;3.15;;;;;;;20.38;100.00;165901.13;5018905;28;20030;-65
2022/07/20 01:06:23;;;;;;;24.40;3.95;;;;;;;20.37;100.00;165897.00;5011419;28;20517;-65
2022/07/20 01:08:49;;;;;;;7.13;3.35;;;;;;;20.26;100.00;165869.88;5024119;28;20018;-65
2022/07/20 01:11:14;;;;;;;8.23;3.30;;;;;;;20.33;100.00;165886.16;5009649;28;20045;-64
2022/07/20 01:13:40;;;;;;;8.15;3.17;;;;;;;20.32;100.00;165884.84;5022029;28;20025;-64
2022/07/20 01:16:05;;;;;;;7.35;3.47;;;;;;;20.31;100.00;165880.72;5029860;28;20044;-64
2022/07/20 01:18:31;;;;;;;6.88;3.60;;;;;;;20.29;100.00;165878.00;5018331;28;20034;-64
2022/07/20 01:21:04;;;;;;;6.35;4.30;;;;;;;20.36;100.00;165894.34;5009938;28;20038;-64
2022/07/20 01:23:29;;;;;;;14.60;3.60;;;;;;;20.34;100.00;165888.88;5011221;28;20516;-64
2022/07/20 01:25:56;;;;;;;7.18;3.63;;;;;;;20.29;100.00;165878.00;5015233;28;20046;-64
2022/07/20 01:28:21;;;;;;;7.82;3.13;;;;;;;20.24;100.00;165863.09;5019596;28;20054;-64
2022/07/20 01:30:47;;;;;;;5.97;3.83;;;;;;;20.18;100.00;165848.16;5010055;28;20458;-64
2022/07/20 01:33:12;;;;;;;8.65;3.95;;;;;;;20.13;100.00;165834.59;5011044;28;20426;-64
2022/07/20 01:35:37;;;;;;;7.35;4.13;;;;;;;20.11;100.00;165829.16;5010128;28;20129;-64
2022/07/20 01:38:03;;;;;;;10.55;3.67;;;;;;;20.10;100.00;165827.84;5023687;28;20029;-64
2022/07/20 01:40:28;;;;;;;7.75;3.65;;;;;;;20.03;100.00;165807.44;5029090;28;20053;-65
2022/07/20 01:42:54;;;;;;;6.57;3.58;;;;;;;20.03;100.00;165807.44;5029448;28;20037;-64
2022/07/20 01:45:19;;;;;;;5.70;3.42;;;;;;;20.00;100.00;165800.66;5022969;28;20046;-64
2022/07/20 01:47:44;;;;;;;4.97;3.22;;;;;;;20.00;100.00;165800.66;5014245;28;20026;-64
2022/07/20 01:50:10;;;;;;;6.93;3.58;;;;;;;19.99;100.00;165796.59;5009713;28;20061;-64
2022/07/20 01:52:35;;;;;;;5.88;3.63;;;;;;;19.97;100.00;165793.88;5011063;28;20052;-64
2022/07/20 01:55:01;;;;;;;10.30;4.22;;;;;;;19.94;100.00;165785.72;5010113;28;20076;-64
2022/07/20 01:57:26;;;;;;;8.75;3.60;;;;;;;19.93;100.00;165783.00;5018140;28;20033;-64
2022/07/20 01:59:52;;;;;;;8.95;4.95;;;;;;;19.91;100.00;165777.63;5027687;28;20400;-64
2022/07/20 02:02:17;;;;;;;8.15;3.80;;;;;;;19.92;100.00;165778.94;5029900;28;20018;-64
2022/07/20 02:04:42;;;;;;;6.32;3.63;;;;;;;19.88;100.00;165769.44;5029550;28;20451;-63
2022/07/20 02:07:08;;;;;;;5.20;3.28;;;;;;;19.82;100.00;165753.13;5026281;28;20029;-64
2022/07/20 02:09:33;;;;;;;18.42;4.93;;;;;;;19.69;100.00;165719.19;5009737;28;20026;-65
2022/07/20 02:11:58;;;;;;;5.40;2.60;;;;;;;19.63;100.00;165704.25;5011112;28;20026;-66
2022/07/20 02:14:24;;;;;;;5.30;4.35;;;;;;;19.55;100.00;165682.53;5022588;28;20025;-65
2022/07/20 02:16:49;;;;;;;10.88;6.03;;;;;;;19.53;100.00;165677.13;5022511;28;20029;-66
2022/07/20 02:19:14;;;;;;;7.05;4.30;;;;;;;19.38;100.00;165636.44;5010845;28;20025;-66
2022/07/20 02:21:40;;;;;;;5.43;3.25;;;;;;;19.42;100.00;165647.25;5016775;28;20034;-65
2022/07/20 02:24:05;;;;;;;7.55;3.42;;;;;;;19.42;100.00;165647.25;5030087;28;20333;-65
2022/07/20 02:26:31;;;;;;;9.77;3.45;;;;;;;19.39;100.00;165639.16;5025036;28;20057;-65
2022/07/20 02:28:56;;;;;;;9.57;4.05;;;;;;;19.38;100.00;165636.44;5012294;28;20501;-65
2022/07/20 02:31:23;;;;;;;12.20;4.35;;;;;;;19.45;100.00;165656.75;5028753;28;20401;-65
2022/07/20 02:33:49;;;;;;;7.63;3.85;;;;;;;19.54;100.00;165679.84;5030941;28;20037;-66
2022/07/20 02:36:14;;;;;;;7.53;2.97;;;;;;;19.59;100.00;165693.41;5027121;28;20037;-65
2022/07/20 02:38:40;;;;;;;4.07;2.92;;;;;;;19.62;100.00;165701.53;5029845;28;20048;-65
2022/07/20 02:41:05;;;;;;;9.25;3.72;;;;;;;19.63;100.00;165704.25;5015674;28;20373;-65
2022/07/20 02:43:31;;;;;;;6.20;4.00;;;;;;;19.57;100.00;165687.97;5010693;28;20107;-65
2022/07/20 02:45:56;;;;;;;7.00;4.22;;;;;;;19.61;100.00;165698.84;5011053;28;20124;-65
2022/07/20 02:48:21;;;;;;;8.93;3.45;;;;;;;19.60;100.00;165696.13;5030220;28;20502;-65
2022/07/20 02:50:47;;;;;;;8.20;4.00;;;;;;;19.54;100.00;165679.84;5028193;28;20463;-64
2022/07/20 02:53:13;;;;;;;11.93;3.50;;;;;;;19.48;100.00;165663.53;5029390;28;20029;-65
2022/07/20 02:55:40;;;;;;;12.75;3.78;;;;;;;19.42;100.00;165647.25;5030176;28;20535;-65
2022/07/20 02:58:05;;;;;;;8.20;3.53;;;;;;;19.36;100.00;165631.00;5014173;28;20079;-64
2022/07/20 03:00:32;;;;;;;8.82;3.22;;;;;;;19.32;100.00;165622.84;5012626;28;20042;-60
2022/07/20 03:02:57;;;;;;;4.93;3.65;;;;;;;19.33;100.00;165624.22;5028817;28;20034;-61
2022/07/20 03:05:23;;;;;;;4.57;3.03;;;;;;;19.34;100.00;165628.28;5016031;28;20060;-60
2022/07/20 03:07:48;;;;;;;9.00;3.72;;;;;;;19.34;100.00;165628.28;5030523;28;20037;-62
2022/07/20 03:10:15;;;;;;;7.60;3.42;;;;;;;19.34;100.00;165628.28;5020385;28;20436;-62
2022/07/20 03:12:40;;;;;;;6.22;4.45;;;;;;;19.36;100.00;165632.31;5014873;28;20026;-61
2022/07/20 03:15:07;;;;;;;5.18;3.80;;;;;;;19.33;100.00;165625.56;5031033;28;20409;-61
2022/07/20 03:17:32;;;;;;;6.00;4.03;;;;;;;19.32;100.00;165622.84;5033241;28;20029;-61
2022/07/20 03:19:58;;;;;;;11.48;4.22;;;;;;;19.29;100.00;165614.72;5032315;28;20111;-61
2022/07/20 03:22:23;;;;;;;14.38;5.18;;;;;;;19.24;100.00;165601.16;5032995;28;20370;-61
2022/07/20 03:24:49;;;;;;;11.10;4.80;;;;;;;19.16;100.00;165579.47;5014259;28;20129;-62
2022/07/20 03:27:14;;;;;;;13.85;4.57;;;;;;;19.05;100.00;165550.97;5013363;28;20056;-61
2022/07/20 03:29:40;;;;;;;22.45;6.03;;;;;;;19.03;100.00;165546.88;5020618;28;20469;-62
2022/07/20 03:32:05;;;;;;;35.35;4.82;;;;;;;18.99;100.00;165536.03;5033201;28;20435;-61
2022/07/20 03:34:31;;;;;;;15.65;4.47;;;;;;;18.93;100.00;165519.78;5016605;28;20049;-63
2022/07/20 03:36:56;;;;;;;5.03;3.90;;;;;;;18.98;100.00;165533.31;5015512;28;20068;-63
2022/07/20 03:39:21;;;;;;;16.40;4.30;;;;;;;18.98;100.00;165532.00;5031626;28;20071;-63
2022/07/20 03:41:47;;;;;;;14.88;4.07;;;;;;;18.97;100.00;165529.28;5033259;28;20037;-63
2022/07/20 03:44:12;;;;;;;9.82;4.20;;;;;;;18.95;100.00;165525.16;5031340;28;20481;-62
2022/07/20 03:46:38;;;;;;;8.18;4.53;;;;;;;18.90;100.00;165511.56;5031441;28;20037;-63
2022/07/20 03:49:03;;;;;;;9.35;4.15;;;;;;;18.79;100.00;165481.75;5025783;28;20049;-63
2022/07/20 03:51:29;;;;;;;11.50;4.45;;;;;;;18.70;100.00;165460.03;5011662;28;20104;-63
2022/07/20 03:53:54;;;;;;;12.00;4.00;;;;;;;18.65;100.00;165446.44;5022293;28;20443;-63
2022/07/20 03:56:20;;;;;;;12.57;5.32;;;;;;;18.59;100.00;165430.19;5031435;28;20033;-62
2022/07/20 03:58:45;;;;;;;4.57;4.18;;;;;;;18.44;100.00;165390.88;5022973;28;20492;-61
2022/07/20 04:01:11;;;;;;;9.30;4.10;;;;;;;18.36;100.00;165370.50;5010892;28;20092;-63
2022/07/20 04:03:36;;;;;;;5.88;4.40;;;;;;;18.35;100.00;165367.84;5014092;28;20026;-62
2022/07/20 04:06:02;;;;;;;5.45;4.07;;;;;;;18.31;100.00;165355.63;5019966;28;20045;-62
2022/07/20 04:08:27;;;;;;;9.95;5.30;;;;;;;18.29;100.00;165351.53;5020021;28;20025;-63
2022/07/20 04:10:53;;;;;;;5.40;3.65;;;;;;;18.28;100.00;165348.81;5018912;28;20055;-61
2022/07/20 04:13:18;;;;;;;8.80;4.22;;;;;;;18.27;100.00;165346.16;5023615;28;20041;-60
2022/07/20 04:15:43;;;;;;;9.57;3.92;;;;;;;18.27;100.00;165346.16;5028651;28;20053;-61
2022/07/20 04:18:09;;;;;;;23.27;5.28;;;;;;;18.27;100.00;165346.16;5016277;28;20426;-60
2022/07/20 04:20:34;;;;;;;12.95;5.15;;;;;;;18.27;100.00;165344.75;5011450;28;20532;-61
2022/07/20 04:23:00;;;;;;;10.90;5.07;;;;;;;18.29;100.00;165351.53;5015456;28;20690;-61
2022/07/20 04:25:25;;;;;;;11.32;3.88;;;;;;;18.30;100.00;165352.91;5012208;28;20046;-61
2022/07/20 04:27:51;;;;;;;4.78;3.72;;;;;;;18.30;100.00;165352.91;5021353;28;20100;-61
2022/07/20 04:30:17;;;;;;;10.20;3.83;;;;;;;18.30;100.00;165354.25;5010598;28;20482;-61
2022/07/20 04:32:43;;;;;;;13.77;4.47;;;;;;;18.26;100.00;165343.44;5013109;28;20167;-60
2022/07/20 04:35:09;;;;;;;6.93;3.20;;;;;;;18.30;100.00;165354.25;5011510;28;20353;-60
2022/07/20 04:37:35;;;;;;;20.52;4.80;;;;;;;18.31;100.00;165356.97;5023099;28;20056;-60
2022/07/20 04:40:01;;;;;;;15.02;5.22;;;;;;;18.28;100.00;165348.81;5028763;28;20444;-60
2022/07/20 04:42:26;;;;;;;20.75;4.35;;;;;;;18.36;100.00;165369.19;5011988;28;20022;-60
2022/07/20 04:44:52;;;;;;;13.00;5.50;;;;;;;18.41;100.00;165382.72;5010710;28;20038;-60
2022/07/20 04:47:17;;;;;;;16.13;4.95;;;;;;;18.45;100.00;165392.22;5013484;28;20048;-60
2022/07/20 04:49:42;;;;;;;10.02;3.75;;;;;;;18.53;100.00;165413.91;5010688;28;20048;-60
2022/07/20 04:52:08;;;;;;;13.93;4.43;;;;;;;18.65;100.00;165445.13;5029807;28;20026;-60
2022/07/20 04:54:33;;;;;;;6.22;3.25;;;;;;;18.76;100.00;165473.59;5016143;28;20112;-61
2022/07/20 04:57:01;;;;;;;12.45;4.45;;;;;;;18.92;100.00;165517.06;5012890;28;20308;-60
2022/07/20 04:59:26;;;;;;;7.03;3.70;;;;;;;19.13;100.00;165572.69;5015328;28;20040;-60
2022/07/20 05:01:51;;;;;;;6.70;3.88;;;;;;;19.41;100.00;165644.53;5029655;28;20017;-60
2022/07/20 05:04:17;;;;;;;4.35;3.60;;;;;;;19.65;100.00;165709.69;5018368;28;20041;-60
2022/07/20 05:06:42;;;;;;;12.95;3.70;;;;;;;19.93;100.00;165781.66;5012059;28;20022;-60
2022/07/20 05:09:10;;;;;;;22.90;4.28;;;;;;;20.17;100.00;165845.44;5011077;28;20397;-61
2022/07/20 05:11:35;;;;;;;6.05;3.38;;;;;;;20.41;100.00;165907.88;5024348;28;20047;-63
2022/07/20 05:14:00;;;;;;;7.10;3.17;;;;;;;20.67;100.00;165975.75;5024802;28;20021;-64
2022/07/20 05:16:26;;;;;;;10.68;4.65;;;;;;;20.97;100.00;166054.53;5020640;28;20099;-64
2022/07/20 05:18:51;;;;;;;10.02;4.30;;;;;;;21.23;100.00;166125.19;5028655;28;20037;-64
2022/07/20 05:21:16;;;;;;;7.55;4.05;;;;;;;21.39;100.00;166165.94;5025674;28;20041;-64
2022/07/20 05:23:42;;;;;;;15.00;4.72;;;;;;;21.68;100.00;166242.03;5019838;28;20381;-63
2022/07/20 05:26:07;;;;;;;4.25;3.53;;;;;;;21.86;100.00;166290.91;5021367;28;20045;-62
2022/07/20 05:28:33;;;;;;;5.10;3.08;;;;;;;22.05;100.00;166338.44;5019484;28;20017;-61
2022/07/20 05:30:58;;;;;;;9.52;4.70;;;;;;;22.26;100.00;166394.16;5019876;28;20481;-63
2022/07/20 05:33:23;;;;;;;16.15;5.53;;;;;;;22.54;100.00;166468.97;5017940;28;20542;-62
2022/07/20 05:35:49;;;;;;;13.55;4.50;;;;;;;22.80;100.00;166538.28;5019240;28;20042;-62
2022/07/20 05:38:15;;;;;;;7.25;3.25;;;;;;;23.04;100.00;166600.81;5020766;28;20041;-62
2022/07/20 05:40:40;;;;;;;6.07;3.75;;;;;;;23.22;100.00;166647.06;5016682;28;20523;-60
2022/07/20 05:43:06;;;;;;;7.68;3.92;;;;;;;23.40;100.00;166694.63;5019728;28;20021;-61
2022/07/20 05:45:31;;;;;;;9.98;4.63;;;;;;;23.58;100.00;166742.22;5018438;28;20049;-60
2022/07/20 05:47:57;;;;;;;12.50;4.63;;;;;;;23.77;100.00;166792.53;5020560;28;20029;-60
2022/07/20 05:50:22;;;;;;;11.07;4.05;;;;;;;23.95;100.00;166840.16;5017485;28;20451;-60
2022/07/20 05:52:48;;;;;;;8.60;4.53;;;;;;;24.06;100.00;166868.72;5020222;28;20039;-60
2022/07/20 05:55:13;;;;;;;11.35;4.63;;;;;;;24.17;100.00;166897.28;5016647;28;20518;-60
2022/07/20 05:57:38;;;;;;;10.27;4.25;;;;;;;24.27;100.00;166924.50;5018563;28;20500;-60
2022/07/20 06:00:04;;;;;;;6.00;4.38;;;;;;;24.36;100.00;166949.00;5018679;28;20041;-60
2022/07/20 06:02:30;;;;;;;11.68;4.75;;;;;;;24.43;100.00;166966.63;5016501;28;20026;-59
2022/07/20 06:04:55;;;;;;;8.88;5.28;;;;;;;24.48;100.00;166978.88;5021602;28;20044;-60
2022/07/20 06:07:21;;;;;;;8.15;4.95;;;;;;;24.52;100.00;166989.78;5019142;28;20026;-60
2022/07/20 06:09:46;;;;;;;12.18;4.40;;;;;;;24.59;100.00;167008.84;5016759;28;20409;-60
2022/07/20 06:12:12;;;;;;;7.97;5.13;;;;;;;24.61;100.00;167014.25;5015312;28;20033;-61
2022/07/20 06:14:37;;;;;;;15.90;6.88;;;;;;;24.67;100.00;167030.66;5020460;28;20497;-60
2022/07/20 06:17:02;;;;;;;10.13;6.60;;;;;;;24.78;100.00;167057.84;5010681;28;20079;-59
2022/07/20 06:19:28;;;;;;;19.27;8.52;;;;;;;24.85;100.00;167076.88;5009565;28;20109;-59
2022/07/20 06:21:53;;;;;;;21.85;8.10;;;;;;;24.87;100.00;167082.34;5019879;28;20370;-59
2022/07/20 06:24:18;;;;;;;32.55;9.88;;;;;;;24.90;100.00;167089.13;5026565;28;20032;-59
2022/07/20 06:26:45;;;;;;;17.60;9.80;;;;;;;24.97;100.00;167108.16;5010851;28;20052;-59
2022/07/20 06:29:10;;;;;;;15.00;9.40;;;;;;;25.10;100.00;167142.19;5009078;28;20037;-59
2022/07/20 06:31:36;;;;;;;11.45;8.13;;;;;;;25.01;100.00;167120.44;5012074;28;20038;-59
2022/07/20 06:34:02;;;;;;;19.05;9.93;;;;;;;25.09;100.00;167139.47;5026770;28;20049;-59
2022/07/20 06:36:28;;;;;;;17.40;9.43;;;;;;;25.25;100.00;167183.03;5012782;28;20052;-59
2022/07/20 06:38:54;;;;;;;27.02;10.88;;;;;;;25.40;100.00;167222.50;5014344;28;20034;-60
2022/07/20 06:41:19;;;;;;;20.05;9.85;;;;;;;25.74;100.00;167310.97;5012824;28;20042;-60
2022/07/20 06:43:44;;;;;;;34.67;12.05;;;;;;;26.15;100.00;167419.94;5014196;28;20029;-61
2022/07/20 06:46:10;;;;;;;17.60;10.32;;;;;;;26.74;100.00;167575.13;5029291;28;20037;-58
2022/07/20 06:48:36;;;;;;;18.65;12.95;;;;;;;27.41;100.00;167752.22;5034254;28;20040;-58
2022/07/20 06:51:02;;;;;;;23.27;12.98;;;;;;;27.93;100.00;167888.50;5013621;28;20046;-58
2022/07/20 06:53:27;;;;;;;23.63;12.55;;;;;;;28.27;100.00;167978.44;5014280;28;20045;-60
2022/07/20 06:55:53;;;;;;;15.82;11.52;;;;;;;28.65;100.00;168079.28;5026752;28;20099;-58
2022/07/20 06:58:18;;;;;;;20.10;13.90;;;;;;;29.03;100.00;168178.84;5033354;28;20465;-58
2022/07/20 07:00:43;;;;;;;19.50;12.32;;;;;;;29.04;100.00;168181.59;5020043;28;20049;-58
2022/07/20 07:03:09;;;;;;;21.98;14.52;;;;;;;28.74;100.00;168103.88;5014104;28;20022;-57
2022/07/20 07:05:34;;;;;;;15.88;13.05;;;;;;;28.97;100.00;168165.19;5022141;28;20041;-58
2022/07/20 07:08:00;;;;;;;23.20;12.52;;;;;;;28.89;100.00;168142.03;5021055;28;20026;-57
2022/07/20 07:10:25;;;;;;;32.13;15.02;;;;;;;28.55;100.00;168052.06;5012392;28;20053;-57
2022/07/20 07:12:51;;;;;;;23.35;14.82;;;;;;;28.06;100.00;167923.94;5027076;28;20040;-57
2022/07/20 07:15:16;;;;;;;17.23;13.55;;;;;;;27.97;100.00;167899.38;5031101;28;20566;-57
2022/07/20 07:17:41;;;;;;;26.42;15.75;;;;;;;27.47;100.00;167768.59;5033222;28;20030;-58
2022/07/20 07:20:07;;;;;;;43.00;16.25;;;;;;;27.45;100.00;167763.16;5031838;28;20814;-57
2022/07/20 07:22:34;;;;;;;26.77;17.08;;;;;;;27.43;100.00;167757.72;5030101;28;20033;-57
2022/07/20 07:25:00;;;;;;;37.15;16.45;;;;;;;27.51;100.00;167779.53;5031964;28;20036;-59
2022/07/20 07:27:25;;;;;;;22.98;18.20;;;;;;;27.31;100.00;167724.97;5023058;28;20058;-59
2022/07/20 07:29:50;;;;;;;25.75;19.27;;;;;;;27.20;100.00;167697.75;5031508;28;20045;-59
2022/07/20 07:32:16;;;;;;;25.55;17.73;;;;;;;27.29;100.00;167720.88;5016528;28;20033;-59
2022/07/20 07:34:41;;;;;;;43.55;20.10;;;;;;;27.46;100.00;167765.88;5011418;28;20045;-59
2022/07/20 07:37:06;;;;;;;31.08;19.92;;;;;;;27.42;100.00;167755.00;5014997;28;20029;-59
2022/07/20 07:39:32;;;;;;;34.38;22.23;;;;;;;27.63;100.00;167809.47;5031533;28;20420;-59
2022/07/20 07:41:57;;;;;;;33.88;20.60;;;;;;;27.59;100.00;167799.94;5031591;28;20048;-59
2022/07/20 07:44:22;;;;;;;28.58;20.30;;;;;;;27.77;100.00;167847.63;5031821;28;20026;-59
2022/07/20 07:46:48;;;;;;;28.38;21.08;;;;;;;27.81;100.00;167858.50;5016842;28;20423;-59
2022/07/20 07:49:13;;;;;;;31.77;22.40;;;;;;;27.71;100.00;167831.28;5032119;28;20049;-59
2022/07/20 07:51:39;;;;;;;27.25;21.30;;;;;;;27.80;100.00;167854.41;5032044;28;20441;-59
2022/07/20 07:54:05;;;;;;;28.77;20.90;;;;;;;27.85;100.00;167868.06;5019915;28;20030;-59
2022/07/20 07:56:31;;;;;;;38.08;21.40;;;;;;;27.91;100.00;167883.03;5011838;28;20056;-59
2022/07/20 07:58:56;;;;;;;39.42;23.23;;;;;;;27.82;100.00;167861.22;5029883;28;20025;-59
2022/07/20 08:01:21;;;;;;;37.55;22.90;;;;;;;28.10;100.00;167933.47;5031632;28;20040;-59
2022/07/20 08:03:47;;;;;;;30.65;24.08;;;;;;;27.96;100.00;167896.69;5033006;28;20022;-59
2022/07/20 08:06:12;;;;;;;37.33;24.52;;;;;;;28.08;100.00;167929.41;5031595;28;20041;-59
2022/07/20 08:08:38;;;;;;;35.00;24.30;;;;;;;28.46;100.00;168028.84;5020335;28;20034;-59
2022/07/20 08:11:03;;;;;;;33.42;26.60;;;;;;;28.70;100.00;168093.00;5018056;28;20053;-59
2022/07/20 08:13:29;;;;;;;28.13;24.60;;;;;;;28.81;100.00;168122.94;5027519;28;20473;-59
2022/07/20 08:15:55;;;;;;;43.72;26.35;;;;;;;29.09;100.00;168196.53;5012022;28;20169;-60
2022/07/20 08:18:20;;;;;;;36.17;27.52;;;;;;;29.27;100.00;168242.91;5013559;28;20022;-59
2022/07/20 08:20:46;;;;;;;39.00;27.52;;;;;;;29.65;100.00;168343.84;5031379;28;20045;-59
2022/07/20 08:23:11;;;;;;;37.15;24.35;;;;;;;29.58;100.00;168324.75;5032743;28;20025;-60
2022/07/20 08:25:36;;;;;;;33.63;25.60;;;;;;;29.54;100.00;168313.81;5031216;28;20088;-59
2022/07/20 08:28:18;;;;;;;33.33;26.67;;;;;;;30.01;100.00;168439.31;5032673;28;20045;-60
2022/07/20 08:30:46;;;;;;;36.45;25.25;;;;;;;30.43;100.00;168548.38;5011655;28;20077;-60
2022/07/20 08:33:11;;;;;;;;;;;;;;;30.70;100.00;168622.13;5026137;28;20100;-60
2022/07/20 08:35:37;;;;;;;35.57;25.20;;;;;;;30.70;100.00;168622.13;5030736;28;20016;-58
2022/07/20 08:38:03;;;;;;;47.50;30.50;;;;;;;30.83;100.00;168654.84;5032573;28;20428;-57
2022/07/20 08:40:29;;;;;;;43.28;26.60;;;;;;;31.09;100.00;168723.13;5028220;28;20059;-57
2022/07/20 08:42:55;;;;;;;37.78;27.25;;;;;;;30.48;100.00;168563.41;5032468;28;20125;-58
2022/07/20 08:45:21;;;;;;;35.20;25.33;;;;;;;30.61;100.00;168597.56;5015258;28;20088;-57
2022/07/20 08:47:50;;;;;;;40.25;26.42;;;;;;;30.60;100.00;168594.81;5012322;28;20033;-57
2022/07/20 08:50:24;;;;;;;35.72;25.60;;;;;;;30.59;100.00;168590.75;5024237;28;20045;-57
2022/07/20 08:52:50;;;;;;;33.50;25.23;;;;;;;30.47;100.00;168560.66;5012160;28;20172;-57
2022/07/20 08:55:15;;;;;;;36.47;27.15;;;;;;;30.46;100.00;168556.59;5010399;28;20507;-57
2022/07/20 08:57:42;;;;;;;34.47;24.90;;;;;;;30.52;100.00;168573.00;5012286;28;20057;-57
2022/07/20 09:00:08;;;;;;;42.25;26.20;;;;;;;30.57;100.00;168586.63;5025164;28;20060;-58
2022/07/20 09:02:54;;;;;;;31.60;26.33;;;;;;;30.80;100.00;168646.63;5031276;28;20595;-58
2022/07/20 09:05:21;;;;;;;48.70;27.58;;;;;;;30.98;100.00;168694.38;5030251;28;20477;-59
2022/07/20 09:07:55;;;;;;;32.08;24.27;;;;;;;31.04;100.00;168710.78;5030192;28;20143;-58
2022/07/20 09:10:22;;;;;;;42.13;28.88;;;;;;;30.94;100.00;168683.47;5013124;28;20057;-57
2022/07/20 09:12:53;;;;;;;29.92;25.65;;;;;;;31.32;100.00;168784.50;5020450;28;20036;-57
2022/07/20 09:15:40;;;;;;;37.38;26.85;;;;;;;31.25;100.00;168766.72;5010338;28;20083;-58
2022/07/20 09:18:19;;;;;;;44.67;28.17;;;;;;;31.15;100.00;168739.47;5011277;28;20389;-58
2022/07/20 09:20:46;;;;;;;40.60;27.08;;;;;;;31.02;100.00;168706.66;5010480;28;20037;-57
2022/07/20 09:23:18;;;;;;;42.03;26.13;;;;;;;31.14;100.00;168736.75;5011603;28;20037;-57
2022/07/20 09:25:57;;;;;;;37.45;26.25;;;;;;;31.28;100.00;168774.94;5010340;28;20034;-58
2022/07/20 09:28:22;;;;;;;30.73;27.42;;;;;;;31.42;100.00;168810.41;5011234;28;20057;-57
2022/07/20 09:30:51;;;;;;;27.60;24.27;;;;;;;31.55;100.00;168845.88;5011393;28;20050;-58
2022/07/20 09:33:22;;;;;;;;;;;;;;;31.63;100.00;168867.69;5011743;28;20394;-58
2022/07/20 09:35:48;;;;;;;35.13;25.90;;;;;;;31.47;100.00;168825.41;5019764;28;19921;-58
2022/07/20 09:38:13;;;;;;;34.17;25.30;;;;;;;31.54;100.00;168843.13;5019224;28;20032;-58
2022/07/20 09:40:41;;;;;;;28.45;25.45;;;;;;;31.45;100.00;168818.59;5012560;28;20061;-58
2022/07/20 09:43:08;;;;;;;28.23;21.00;;;;;;;31.81;100.00;168914.16;5012275;28;20776;-57
2022/07/20 09:45:33;;;;;;;39.55;23.73;;;;;;;31.91;100.00;168941.41;5013679;28;20056;-58
2022/07/20 09:48:10;;;;;;;29.45;22.02;;;;;;;32.03;98.06;168971.47;5020675;28;20022;-58
2022/07/20 09:50:38;;;;;;;31.33;25.38;;;;;;;32.05;100.00;168978.28;5019169;28;20046;-58
2022/07/20 09:53:06;;;;;;;29.48;22.25;;;;;;;31.61;100.00;168862.22;5030956;28;20028;-58
2022/07/20 09:55:32;;;;;;;;;;;;;;;31.59;99.69;168856.81;5029715;28;20505;-58
2022/07/20 09:57:58;;;;;;;24.85;18.17;;;;;;;31.32;94.67;168785.81;5029683;28;20309;-58
2022/07/20 10:00:23;;;;;;;21.13;18.10;;;;;;;31.50;95.12;168832.22;5028686;28;20053;-58
2022/07/20 10:02:50;;;;;;;26.27;18.83;;;;;;;31.47;92.18;168825.41;5020962;28;20022;-58
2022/07/20 10:05:18;;;;;;;25.35;16.38;;;;;;;31.47;92.01;168825.41;5009235;28;20095;-58
2022/07/20 10:07:44;;;;;;;22.55;14.85;;;;;;;31.57;90.58;168851.34;5013418;28;20555;-58
2022/07/20 10:10:09;;;;;;;17.60;15.73;;;;;;;31.39;88.74;168803.59;5028945;28;20041;-58
2022/07/20 10:12:35;;;;;;;20.67;14.60;;;;;;;31.45;89.06;168818.59;5030679;28;20121;-58
2022/07/20 10:15:04;;;;;;;19.48;15.45;;;;;;;31.56;89.56;168848.59;5023117;28;20177;-58
2022/07/20 10:17:31;;;;;;;19.10;16.48;;;;;;;31.72;88.71;168889.59;5010571;28;20056;-59
2022/07/20 10:19:56;;;;;;;22.65;16.10;;;;;;;31.85;86.76;168923.72;5012689;28;20045;-58
2022/07/20 10:22:22;;;;;;;26.50;16.75;;;;;;;32.07;86.93;168982.34;5018580;28;20056;-58
2022/07/20 10:25:17;;;;;;;20.92;16.52;;;;;;;32.20;85.72;169017.88;5009375;28;20061;-58
2022/07/20 10:27:42;;;;;;;18.27;14.30;;;;;;;32.23;87.14;169024.75;5012151;28;20049;-58
2022/07/20 10:30:16;;;;;;;15.13;13.52;;;;;;;32.11;81.12;168993.31;5022571;28;20413;-57
2022/07/20 10:32:56;;;;;;;18.40;13.75;;;;;;;32.20;82.37;169017.88;5011279;28;20469;-58
2022/07/20 10:35:30;;;;;;;27.20;14.93;;;;;;;31.99;81.82;168961.91;5009983;28;20060;-60
2022/07/20 10:37:57;;;;;;;15.02;12.98;;;;;;;31.96;81.54;168955.09;5013540;28;20036;-60
2022/07/20 10:40:24;;;;;;;22.92;13.32;;;;;;;32.01;80.74;168966.00;5028697;28;20044;-60
2022/07/20 10:42:51;;;;;;;16.23;13.93;;;;;;;31.98;81.43;168959.19;5030510;28;20092;-60
2022/07/20 10:45:16;;;;;;;23.73;15.15;;;;;;;31.81;81.53;168914.16;5029158;28;20029;-58
2022/07/20 10:47:47;;;;;;;20.77;14.68;;;;;;;32.00;81.48;168963.25;5029257;28;20108;-58
2022/07/20 10:50:21;;;;;;;18.58;13.93;;;;;;;32.24;79.91;169028.84;5009479;28;20042;-58
2022/07/20 10:52:53;;;;;;;17.20;12.30;;;;;;;32.37;80.10;169062.97;5010617;28;20025;-58
2022/07/20 10:55:34;;;;;;;22.95;13.27;;;;;;;32.48;80.43;169090.22;5016190;28;20057;-58
2022/07/20 10:58:10;;;;;;;23.25;15.07;;;;;;;32.00;81.15;168963.25;5018641;28;20045;-58
2022/07/20 11:00:41;;;;;;;15.93;14.15;;;;;;;32.00;82.04;168963.25;5011919;28;20071;-58
2022/07/20 11:03:13;;;;;;;22.80;13.95;;;;;;;32.04;83.22;168974.19;5010656;28;20018;-57
2022/07/20 11:05:39;;;;;;;20.48;13.48;;;;;;;31.83;82.46;168918.25;5007876;28;20388;-57
2022/07/20 11:08:08;;;;;;;24.75;16.65;;;;;;;32.23;80.63;169024.75;5010610;28;20025;-57
2022/07/20 11:10:34;;;;;;;21.77;13.07;;;;;;;32.14;81.98;169000.13;5008914;28;20038;-57